East Dover, Vermont
Current Conditions -  °F | °C
As of 5:31 AM on Friday 24 Oct 2014 (Local Time) from KDDH Reporting Station
Light Rain Light Rain  
Wind Chill: 39°   Ceiling: 2400
Heat Index: 43°   Visibility: 4mi
Dew Point: 41°   Wind: 7mph
Humidity: 93%   Direction: 300°WNW
Pressure: 29.8"   Gusts: NA
Location:  42.95°N, 72.77°W
Report Text: KDDH 240931Z AUTO 30006KT 4SM -RA BR BKN024 OVC031 06/05 A2980 RMK AO2 P0004 T00610050
Loading
Personal Weather Stations






























Interactive Weather Map
Tropical Storm Tracking
New forecast layout! Learn more

10-Day Weather Forecast

Advertisements
Track Severe Weather on mobile